sensor_id;sensor_type;location;lat;lon;timestamp;temperature;humidity
13682;DHT22;6913;49.892;7.936;2023-02-04T00:00:05;9.20;99.90
13682;DHT22;6913;49.892;7.936;2023-02-04T00:02:33;8.70;99.90
13682;DHT22;6913;49.892;7.936;2023-02-04T00:05:00;8.70;99.90
13682;DHT22;6913;49.892;7.936;2023-02-04T00:07:27;8.60;99.90
13682;DHT22;6913;49.892;7.936;2023-02-04T00:09:53;8.70;99.90
13682;DHT22;6913;49.892;7.936;2023-02-04T00:12:22;8.60;99.90
13682;DHT22;6913;49.892;7.936;2023-02-04T00:14:48;8.70;99.90
13682;DHT22;6913;49.892;7.936;2023-02-04T00:17:16;8.50;99.90
13682;DHT22;6913;49.892;7.936;2023-02-04T00:19:42;8.80;99.90
13682;DHT22;6913;49.892;7.936;2023-02-04T00:22:09;8.80;99.90
13682;DHT22;6913;49.892;7.936;2023-02-04T00:24:37;8.70;99.90
13682;DHT22;6913;49.892;7.936;2023-02-04T00:27:05;8.70;99.90
13682;DHT22;6913;49.892;7.936;2023-02-04T00:29:33;8.80;99.90
13682;DHT22;6913;49.892;7.936;2023-02-04T00:32:00;8.70;99.90
13682;DHT22;6913;49.892;7.936;2023-02-04T00:34:27;8.80;99.90
13682;DHT22;6913;49.892;7.936;2023-02-04T00:36:53;8.90;99.90
13682;DHT22;6913;49.892;7.936;2023-02-04T00:39:20;8.80;99.90
13682;DHT22;6913;49.892;7.936;2023-02-04T00:41:48;8.80;99.90
13682;DHT22;6913;49.892;7.936;2023-02-04T00:44:14;8.80;99.90
13682;DHT22;6913;49.892;7.936;2023-02-04T00:46:42;9.10;99.90
13682;DHT22;6913;49.892;7.936;2023-02-04T00:49:09;8.80;99.90
13682;DHT22;6913;49.892;7.936;2023-02-04T00:51:37;8.60;99.90
13682;DHT22;6913;49.892;7.936;2023-02-04T00:54:05;9.10;99.90
13682;DHT22;6913;49.892;7.936;2023-02-04T00:56:32;8.80;99.90
13682;DHT22;6913;49.892;7.936;2023-02-04T00:58:59;8.80;99.90
13682;DHT22;6913;49.892;7.936;2023-02-04T01:01:26;8.80;99.90
13682;DHT22;6913;49.892;7.936;2023-02-04T01:03:54;8.70;99.90
13682;DHT22;6913;49.892;7.936;2023-02-04T01:06:21;8.70;99.90
13682;DHT22;6913;49.892;7.936;2023-02-04T01:08:48;8.70;99.90
13682;DHT22;6913;49.892;7.936;2023-02-04T01:11:15;8.60;99.90
13682;DHT22;6913;49.892;7.936;2023-02-04T01:13:42;8.60;99.90
13682;DHT22;6913;49.892;7.936;2023-02-04T01:16:08;8.60;99.90
13682;DHT22;6913;49.892;7.936;2023-02-04T01:18:36;8.50;99.90
13682;DHT22;6913;49.892;7.936;2023-02-04T01:21:04;8.60;99.90
13682;DHT22;6913;49.892;7.936;2023-02-04T01:23:31;8.60;99.90
13682;DHT22;6913;49.892;7.936;2023-02-04T01:25:58;8.60;99.90
13682;DHT22;6913;49.892;7.936;2023-02-04T01:28:25;8.50;99.90
13682;DHT22;6913;49.892;7.936;2023-02-04T01:30:51;8.50;99.90
13682;DHT22;6913;49.892;7.936;2023-02-04T01:33:18;8.40;99.90
13682;DHT22;6913;49.892;7.936;2023-02-04T01:35:45;8.40;99.90
13682;DHT22;6913;49.892;7.936;2023-02-04T01:38:13;8.30;99.90
13682;DHT22;6913;49.892;7.936;2023-02-04T01:40:40;8.30;99.90
13682;DHT22;6913;49.892;7.936;2023-02-04T01:43:08;8.70;99.90
13682;DHT22;6913;49.892;7.936;2023-02-04T01:45:35;8.30;99.90
13682;DHT22;6913;49.892;7.936;2023-02-04T01:48:03;8.20;99.90
13682;DHT22;6913;49.892;7.936;2023-02-04T01:50:31;8.20;99.90
13682;DHT22;6913;49.892;7.936;2023-02-04T01:52:58;8.20;99.90
13682;DHT22;6913;49.892;7.936;2023-02-04T01:55:29;8.50;99.90
13682;DHT22;6913;49.892;7.936;2023-02-04T01:57:57;8.40;99.90
13682;DHT22;6913;49.892;7.936;2023-02-04T02:00:26;8.20;99.90
13682;DHT22;6913;49.892;7.936;2023-02-04T02:02:54;8.20;99.90
13682;DHT22;6913;49.892;7.936;2023-02-04T02:05:24;8.20;99.90
13682;DHT22;6913;49.892;7.936;2023-02-04T02:07:53;8.20;99.90
13682;DHT22;6913;49.892;7.936;2023-02-04T02:10:22;8.10;99.90
13682;DHT22;6913;49.892;7.936;2023-02-04T02:12:52;8.10;99.90
13682;DHT22;6913;49.892;7.936;2023-02-04T02:15:20;8.00;99.90
13682;DHT22;6913;49.892;7.936;2023-02-04T02:17:47;8.10;99.90
13682;DHT22;6913;49.892;7.936;2023-02-04T02:20:15;8.40;99.90
13682;DHT22;6913;49.892;7.936;2023-02-04T02:22:51;8.30;99.90
13682;DHT22;6913;49.892;7.936;2023-02-04T02:25:22;8.10;99.90
13682;DHT22;6913;49.892;7.936;2023-02-04T02:27:49;8.10;99.90
13682;DHT22;6913;49.892;7.936;2023-02-04T02:30:16;8.10;99.90
13682;DHT22;6913;49.892;7.936;2023-02-04T02:32:44;8.10;99.90
13682;DHT22;6913;49.892;7.936;2023-02-04T02:35:11;8.00;99.90
13682;DHT22;6913;49.892;7.936;2023-02-04T02:37:38;8.00;99.90
13682;DHT22;6913;49.892;7.936;2023-02-04T02:40:06;7.70;99.90
13682;DHT22;6913;49.892;7.936;2023-02-04T02:42:35;8.00;99.90
13682;DHT22;6913;49.892;7.936;2023-02-04T02:45:07;8.40;99.90
13682;DHT22;6913;49.892;7.936;2023-02-04T02:47:36;7.90;99.90
13682;DHT22;6913;49.892;7.936;2023-02-04T02:50:04;7.90;99.90
13682;DHT22;6913;49.892;7.936;2023-02-04T02:52:30;7.80;99.90
13682;DHT22;6913;49.892;7.936;2023-02-04T02:54:57;7.90;99.90
13682;DHT22;6913;49.892;7.936;2023-02-04T02:57:24;7.80;99.90
13682;DHT22;6913;49.892;7.936;2023-02-04T02:59:52;7.70;99.90
13682;DHT22;6913;49.892;7.936;2023-02-04T03:02:21;7.70;99.90
13682;DHT22;6913;49.892;7.936;2023-02-04T03:04:53;7.60;99.90
13682;DHT22;6913;49.892;7.936;2023-02-04T03:07:21;7.60;99.90
13682;DHT22;6913;49.892;7.936;2023-02-04T03:09:48;7.60;99.90
13682;DHT22;6913;49.892;7.936;2023-02-04T03:12:17;7.50;99.90
13682;DHT22;6913;49.892;7.936;2023-02-04T03:14:44;7.50;99.90
13682;DHT22;6913;49.892;7.936;2023-02-04T03:17:12;7.40;99.90
13682;DHT22;6913;49.892;7.936;2023-02-04T03:19:39;7.50;99.90
13682;DHT22;6913;49.892;7.936;2023-02-04T03:22:06;7.50;99.90
13682;DHT22;6913;49.892;7.936;2023-02-04T03:24:34;7.40;99.90
13682;DHT22;6913;49.892;7.936;2023-02-04T03:27:02;7.40;99.90
13682;DHT22;6913;49.892;7.936;2023-02-04T03:29:29;7.30;99.90
13682;DHT22;6913;49.892;7.936;2023-02-04T03:31:56;7.40;99.90
13682;DHT22;6913;49.892;7.936;2023-02-04T03:34:25;7.60;99.90
13682;DHT22;6913;49.892;7.936;2023-02-04T03:36:52;7.40;99.90
13682;DHT22;6913;49.892;7.936;2023-02-04T03:39:19;7.40;99.90
13682;DHT22;6913;49.892;7.936;2023-02-04T03:41:46;7.50;99.90
13682;DHT22;6913;49.892;7.936;2023-02-04T03:44:13;7.40;99.90
13682;DHT22;6913;49.892;7.936;2023-02-04T03:46:39;7.40;99.90
13682;DHT22;6913;49.892;7.936;2023-02-04T03:49:06;7.40;99.90
13682;DHT22;6913;49.892;7.936;2023-02-04T03:51:34;7.30;99.90
13682;DHT22;6913;49.892;7.936;2023-02-04T03:54:01;7.30;99.90
13682;DHT22;6913;49.892;7.936;2023-02-04T03:56:28;7.50;99.90
13682;DHT22;6913;49.892;7.936;2023-02-04T03:58:55;7.40;99.90
13682;DHT22;6913;49.892;7.936;2023-02-04T04:01:22;7.40;99.90
13682;DHT22;6913;49.892;7.936;2023-02-04T04:03:48;7.60;99.90
13682;DHT22;6913;49.892;7.936;2023-02-04T04:06:15;7.40;99.90
13682;DHT22;6913;49.892;7.936;2023-02-04T04:08:43;7.30;99.90
13682;DHT22;6913;49.892;7.936;2023-02-04T04:11:11;7.40;99.90
13682;DHT22;6913;49.892;7.936;2023-02-04T04:13:38;7.40;99.90
13682;DHT22;6913;49.892;7.936;2023-02-04T04:16:05;7.40;99.90
13682;DHT22;6913;49.892;7.936;2023-02-04T04:18:33;7.30;99.90
13682;DHT22;6913;49.892;7.936;2023-02-04T04:21:00;7.10;99.90
13682;DHT22;6913;49.892;7.936;2023-02-04T04:23:27;7.30;99.90
13682;DHT22;6913;49.892;7.936;2023-02-04T04:25:55;7.70;99.90
13682;DHT22;6913;49.892;7.936;2023-02-04T04:28:21;7.30;99.90
13682;DHT22;6913;49.892;7.936;2023-02-04T04:30:48;7.30;99.90
13682;DHT22;6913;49.892;7.936;2023-02-04T04:33:15;7.30;99.90
13682;DHT22;6913;49.892;7.936;2023-02-04T04:35:42;7.30;99.90
13682;DHT22;6913;49.892;7.936;2023-02-04T04:38:09;7.30;99.90
13682;DHT22;6913;49.892;7.936;2023-02-04T04:40:35;7.30;99.90
13682;DHT22;6913;49.892;7.936;2023-02-04T04:43:03;7.20;99.90
13682;DHT22;6913;49.892;7.936;2023-02-04T04:45:30;7.20;99.90
13682;DHT22;6913;49.892;7.936;2023-02-04T04:47:57;7.20;99.90
13682;DHT22;6913;49.892;7.936;2023-02-04T04:50:24;7.20;99.90
13682;DHT22;6913;49.892;7.936;2023-02-04T04:52:51;7.20;99.90
13682;DHT22;6913;49.892;7.936;2023-02-04T04:55:18;7.20;99.90
13682;DHT22;6913;49.892;7.936;2023-02-04T04:57:45;7.30;99.90
13682;DHT22;6913;49.892;7.936;2023-02-04T05:00:17;7.30;99.90
13682;DHT22;6913;49.892;7.936;2023-02-04T05:02:44;7.20;99.90
13682;DHT22;6913;49.892;7.936;2023-02-04T05:05:11;7.30;99.90
13682;DHT22;6913;49.892;7.936;2023-02-04T05:07:38;7.30;99.90
13682;DHT22;6913;49.892;7.936;2023-02-04T05:10:07;7.30;99.90
13682;DHT22;6913;49.892;7.936;2023-02-04T05:12:34;7.30;99.90
13682;DHT22;6913;49.892;7.936;2023-02-04T05:15:01;7.30;99.90
13682;DHT22;6913;49.892;7.936;2023-02-04T05:17:29;7.20;99.90
13682;DHT22;6913;49.892;7.936;2023-02-04T05:19:55;7.30;99.90
13682;DHT22;6913;49.892;7.936;2023-02-04T05:22:22;7.30;99.90
13682;DHT22;6913;49.892;7.936;2023-02-04T05:24:49;7.20;99.90
13682;DHT22;6913;49.892;7.936;2023-02-04T05:27:16;7.30;99.90
13682;DHT22;6913;49.892;7.936;2023-02-04T05:29:43;7.30;99.90
13682;DHT22;6913;49.892;7.936;2023-02-04T05:32:09;7.20;99.90
13682;DHT22;6913;49.892;7.936;2023-02-04T05:34:38;7.20;99.90
13682;DHT22;6913;49.892;7.936;2023-02-04T05:37:04;7.20;99.90
13682;DHT22;6913;49.892;7.936;2023-02-04T05:39:31;7.20;99.90
13682;DHT22;6913;49.892;7.936;2023-02-04T05:41:58;7.30;99.90
13682;DHT22;6913;49.892;7.936;2023-02-04T05:44:25;7.30;99.90
13682;DHT22;6913;49.892;7.936;2023-02-04T05:46:51;7.30;99.90
13682;DHT22;6913;49.892;7.936;2023-02-04T05:49:18;7.20;99.90
13682;DHT22;6913;49.892;7.936;2023-02-04T05:51:46;7.20;99.90
13682;DHT22;6913;49.892;7.936;2023-02-04T05:54:13;7.20;99.90
13682;DHT22;6913;49.892;7.936;2023-02-04T05:56:44;7.30;99.90
13682;DHT22;6913;49.892;7.936;2023-02-04T05:59:11;7.20;99.90
13682;DHT22;6913;49.892;7.936;2023-02-04T06:01:38;7.20;99.90
13682;DHT22;6913;49.892;7.936;2023-02-04T06:04:04;7.20;99.90
13682;DHT22;6913;49.892;7.936;2023-02-04T06:06:31;7.20;99.90
13682;DHT22;6913;49.892;7.936;2023-02-04T06:08:59;7.20;99.90
13682;DHT22;6913;49.892;7.936;2023-02-04T06:11:26;7.20;99.90
13682;DHT22;6913;49.892;7.936;2023-02-04T06:13:53;7.20;99.90
13682;DHT22;6913;49.892;7.936;2023-02-04T06:16:20;7.20;99.90
13682;DHT22;6913;49.892;7.936;2023-02-04T06:18:47;7.20;99.90
13682;DHT22;6913;49.892;7.936;2023-02-04T06:21:13;7.20;99.90
13682;DHT22;6913;49.892;7.936;2023-02-04T06:23:40;7.20;99.90
13682;DHT22;6913;49.892;7.936;2023-02-04T06:26:08;7.10;99.90
13682;DHT22;6913;49.892;7.936;2023-02-04T06:28:35;7.10;99.90
13682;DHT22;6913;49.892;7.936;2023-02-04T06:31:02;7.10;99.90
13682;DHT22;6913;49.892;7.936;2023-02-04T06:33:29;7.00;99.90
13682;DHT22;6913;49.892;7.936;2023-02-04T06:35:56;7.00;99.90
13682;DHT22;6913;49.892;7.936;2023-02-04T06:38:23;7.00;99.90
13682;DHT22;6913;49.892;7.936;2023-02-04T06:40:50;7.00;99.90
13682;DHT22;6913;49.892;7.936;2023-02-04T06:43:19;6.90;99.90
13682;DHT22;6913;49.892;7.936;2023-02-04T06:45:47;6.90;99.90
13682;DHT22;6913;49.892;7.936;2023-02-04T06:48:15;6.70;99.90
13682;DHT22;6913;49.892;7.936;2023-02-04T06:50:42;6.90;99.90
13682;DHT22;6913;49.892;7.936;2023-02-04T06:53:09;6.90;99.90
13682;DHT22;6913;49.892;7.936;2023-02-04T06:55:36;6.90;99.90
13682;DHT22;6913;49.892;7.936;2023-02-04T06:58:02;6.90;99.90
13682;DHT22;6913;49.892;7.936;2023-02-04T07:00:30;7.00;99.90
13682;DHT22;6913;49.892;7.936;2023-02-04T07:02:58;7.00;99.90
13682;DHT22;6913;49.892;7.936;2023-02-04T07:05:24;7.00;99.90
13682;DHT22;6913;49.892;7.936;2023-02-04T07:07:51;7.00;99.90
13682;DHT22;6913;49.892;7.936;2023-02-04T07:10:18;7.10;99.90
13682;DHT22;6913;49.892;7.936;2023-02-04T07:12:45;7.00;99.90
13682;DHT22;6913;49.892;7.936;2023-02-04T07:15:12;7.00;99.90
13682;DHT22;6913;49.892;7.936;2023-02-04T07:17:41;7.10;99.90
13682;DHT22;6913;49.892;7.936;2023-02-04T07:20:09;7.00;99.90
13682;DHT22;6913;49.892;7.936;2023-02-04T07:22:36;7.00;99.90
13682;DHT22;6913;49.892;7.936;2023-02-04T07:25:03;7.10;99.90
13682;DHT22;6913;49.892;7.936;2023-02-04T07:27:30;7.10;99.90
13682;DHT22;6913;49.892;7.936;2023-02-04T07:29:56;7.20;99.90
13682;DHT22;6913;49.892;7.936;2023-02-04T07:32:23;7.10;99.90
13682;DHT22;6913;49.892;7.936;2023-02-04T07:34:53;7.00;99.90
13682;DHT22;6913;49.892;7.936;2023-02-04T07:37:20;7.20;99.90
13682;DHT22;6913;49.892;7.936;2023-02-04T07:39:48;7.20;99.90
13682;DHT22;6913;49.892;7.936;2023-02-04T07:42:14;7.30;99.90
13682;DHT22;6913;49.892;7.936;2023-02-04T07:44:41;7.00;99.90
13682;DHT22;6913;49.892;7.936;2023-02-04T07:47:08;7.00;99.90
13682;DHT22;6913;49.892;7.936;2023-02-04T07:49:36;7.10;99.90
13682;DHT22;6913;49.892;7.936;2023-02-04T07:52:04;7.10;99.90
13682;DHT22;6913;49.892;7.936;2023-02-04T07:54:31;7.30;99.90
13682;DHT22;6913;49.892;7.936;2023-02-04T07:56:58;7.30;99.90
13682;DHT22;6913;49.892;7.936;2023-02-04T07:59:24;6.90;99.90
13682;DHT22;6913;49.892;7.936;2023-02-04T08:01:51;7.00;99.90
13682;DHT22;6913;49.892;7.936;2023-02-04T08:04:18;7.00;99.90
13682;DHT22;6913;49.892;7.936;2023-02-04T08:06:45;7.20;99.90
13682;DHT22;6913;49.892;7.936;2023-02-04T08:09:13;7.40;99.90
13682;DHT22;6913;49.892;7.936;2023-02-04T08:11:39;7.40;99.90
13682;DHT22;6913;49.892;7.936;2023-02-04T08:14:06;7.40;99.90
13682;DHT22;6913;49.892;7.936;2023-02-04T08:16:33;7.60;99.90
13682;DHT22;6913;49.892;7.936;2023-02-04T08:19:00;7.40;99.90
13682;DHT22;6913;49.892;7.936;2023-02-04T08:21:26;7.30;99.90
13682;DHT22;6913;49.892;7.936;2023-02-04T08:23:53;7.20;99.90
13682;DHT22;6913;49.892;7.936;2023-02-04T08:26:21;7.20;99.90
13682;DHT22;6913;49.892;7.936;2023-02-04T08:28:48;7.40;99.90
13682;DHT22;6913;49.892;7.936;2023-02-04T08:31:15;7.50;99.90
13682;DHT22;6913;49.892;7.936;2023-02-04T08:33:41;7.50;99.90
13682;DHT22;6913;49.892;7.936;2023-02-04T08:36:08;7.50;99.90
13682;DHT22;6913;49.892;7.936;2023-02-04T08:38:35;7.40;99.90
13682;DHT22;6913;49.892;7.936;2023-02-04T08:41:02;7.50;99.90
13682;DHT22;6913;49.892;7.936;2023-02-04T08:43:30;7.60;99.90
13682;DHT22;6913;49.892;7.936;2023-02-04T08:45:57;7.60;99.90
13682;DHT22;6913;49.892;7.936;2023-02-04T08:48:24;8.10;99.90
13682;DHT22;6913;49.892;7.936;2023-02-04T08:50:50;7.80;99.90
13682;DHT22;6913;49.892;7.936;2023-02-04T08:53:17;8.20;99.90
13682;DHT22;6913;49.892;7.936;2023-02-04T08:55:44;7.90;99.90
13682;DHT22;6913;49.892;7.936;2023-02-04T08:58:11;8.00;99.90
13682;DHT22;6913;49.892;7.936;2023-02-04T09:00:39;8.00;99.90
13682;DHT22;6913;49.892;7.936;2023-02-04T09:03:06;8.10;99.90
13682;DHT22;6913;49.892;7.936;2023-02-04T09:05:32;8.10;99.90
13682;DHT22;6913;49.892;7.936;2023-02-04T09:07:59;8.30;99.90
13682;DHT22;6913;49.892;7.936;2023-02-04T09:10:26;8.30;99.90
13682;DHT22;6913;49.892;7.936;2023-02-04T09:12:53;8.40;99.90
13682;DHT22;6913;49.892;7.936;2023-02-04T09:15:21;8.40;99.90
13682;DHT22;6913;49.892;7.936;2023-02-04T09:17:49;8.40;99.90
13682;DHT22;6913;49.892;7.936;2023-02-04T09:20:16;8.40;99.90
13682;DHT22;6913;49.892;7.936;2023-02-04T09:22:43;8.50;99.90
13682;DHT22;6913;49.892;7.936;2023-02-04T09:25:10;8.50;99.90
13682;DHT22;6913;49.892;7.936;2023-02-04T09:27:36;8.80;99.90
13682;DHT22;6913;49.892;7.936;2023-02-04T09:30:04;8.60;99.90
13682;DHT22;6913;49.892;7.936;2023-02-04T09:32:31;8.60;99.90
13682;DHT22;6913;49.892;7.936;2023-02-04T09:34:59;8.60;99.90
13682;DHT22;6913;49.892;7.936;2023-02-04T09:37:25;8.70;99.90
13682;DHT22;6913;49.892;7.936;2023-02-04T09:39:53;8.50;99.90
13682;DHT22;6913;49.892;7.936;2023-02-04T09:42:22;8.50;99.90
13682;DHT22;6913;49.892;7.936;2023-02-04T09:44:50;8.60;99.90
13682;DHT22;6913;49.892;7.936;2023-02-04T09:47:18;8.50;99.90
13682;DHT22;6913;49.892;7.936;2023-02-04T09:49:47;8.50;99.90
13682;DHT22;6913;49.892;7.936;2023-02-04T09:52:17;8.50;99.90
13682;DHT22;6913;49.892;7.936;2023-02-04T09:54:44;8.70;99.90
13682;DHT22;6913;49.892;7.936;2023-02-04T09:57:14;8.70;99.90
13682;DHT22;6913;49.892;7.936;2023-02-04T09:59:42;8.70;99.90
13682;DHT22;6913;49.892;7.936;2023-02-04T10:02:20;8.90;99.90
13682;DHT22;6913;49.892;7.936;2023-02-04T10:04:48;8.70;99.90
13682;DHT22;6913;49.892;7.936;2023-02-04T10:07:18;9.70;99.90
13682;DHT22;6913;49.892;7.936;2023-02-04T10:09:49;9.50;99.90
13682;DHT22;6913;49.892;7.936;2023-02-04T10:12:16;9.70;99.90
13682;DHT22;6913;49.892;7.936;2023-02-04T10:14:43;10.00;99.90
13682;DHT22;6913;49.892;7.936;2023-02-04T10:17:10;10.00;99.90
13682;DHT22;6913;49.892;7.936;2023-02-04T10:19:38;10.20;99.90
13682;DHT22;6913;49.892;7.936;2023-02-04T10:22:15;10.30;99.90
13682;DHT22;6913;49.892;7.936;2023-02-04T10:24:43;10.50;99.90
13682;DHT22;6913;49.892;7.936;2023-02-04T10:27:11;10.90;99.90
13682;DHT22;6913;49.892;7.936;2023-02-04T10:29:41;10.90;99.90
13682;DHT22;6913;49.892;7.936;2023-02-04T10:32:26;11.00;99.90
13682;DHT22;6913;49.892;7.936;2023-02-04T10:34:57;11.00;99.90
13682;DHT22;6913;49.892;7.936;2023-02-04T10:37:24;10.90;99.90
13682;DHT22;6913;49.892;7.936;2023-02-04T10:39:52;10.90;99.90
13682;DHT22;6913;49.892;7.936;2023-02-04T10:42:21;10.90;99.90
13682;DHT22;6913;49.892;7.936;2023-02-04T10:44:48;11.00;99.90
13682;DHT22;6913;49.892;7.936;2023-02-04T10:47:18;11.00;99.90
13682;DHT22;6913;49.892;7.936;2023-02-04T10:52:21;11.30;99.90
